Time;durP1;ratioP1;P1;durP2;ratioP2;P2;SDS_P1;SDS_P2;PMS_P1;PMS_P2;Temp;Humidity;BMP_temperature;BMP_pressure;BME280_temperature;BME280_humidity;BME280_pressure;Samples;Min_cycle;Max_cycle;Signal;HPM_P1;HPM_P2
2023/07/28 00:01:45;;;;;;;16.20;10.30;;;20.90;99.90;;;;;;5048752;28;20485;-64
2023/07/28 00:04:11;;;;;;;12.10;8.80;;;20.90;99.90;;;;;;5032031;28;20538;-64
2023/07/28 00:06:38;;;;;;;13.90;10.00;;;20.80;99.90;;;;;;5025344;28;20870;-64
2023/07/28 00:09:05;;;;;;;7.50;6.80;;;20.70;99.90;;;;;;5049354;28;20582;-63
2023/07/28 00:11:32;;;;;;;12.43;7.60;;;20.70;99.90;;;;;;5022846;28;20584;-64
2023/07/28 00:13:59;;;;;;;12.73;9.53;;;20.60;99.90;;;;;;5033747;28;21013;-63
2023/07/28 00:16:27;;;;;;;13.30;8.20;;;20.70;99.90;;;;;;5045088;28;20847;-64
2023/07/28 00:18:54;;;;;;;10.93;7.20;;;20.60;99.90;;;;;;5046550;28;20487;-63
2023/07/28 00:21:21;;;;;;;9.73;7.70;;;20.50;99.90;;;;;;5049336;28;20480;-63
2023/07/28 00:23:48;;;;;;;14.37;10.57;;;20.50;99.90;;;;;;5034422;28;20457;-67
2023/07/28 00:26:15;;;;;;;12.53;8.60;;;20.30;99.90;;;;;;4992801;28;20620;-64
2023/07/28 00:28:41;;;;;;;15.60;9.90;;;20.40;99.90;;;;;;5042036;28;20460;-64
2023/07/28 00:31:08;;;;;;;12.60;8.80;;;20.30;99.90;;;;;;5009331;28;20916;-65
2023/07/28 00:33:38;;;;;;;14.67;9.00;;;20.20;99.90;;;;;;5047258;28;20942;-65
2023/07/28 00:36:05;;;;;;;14.00;9.77;;;20.20;99.90;;;;;;5046379;28;20820;-64
2023/07/28 00:38:32;;;;;;;11.30;7.80;;;20.20;99.90;;;;;;5042994;28;20479;-67
2023/07/28 00:40:59;;;;;;;11.10;7.83;;;20.20;99.90;;;;;;5045005;28;20491;-65
2023/07/28 00:43:26;;;;;;;14.40;8.30;;;20.10;99.90;;;;;;5047281;28;20467;-64
2023/07/28 00:45:53;;;;;;;16.03;10.80;;;20.10;99.90;;;;;;5042445;28;20483;-63
2023/07/28 00:48:22;;;;;;;8.40;6.00;;;20.10;99.90;;;;;;5037541;28;20593;-64
2023/07/28 00:50:52;;;;;;;16.47;10.17;;;20.10;99.90;;;;;;5042790;28;20483;-65
2023/07/28 00:53:19;;;;;;;11.27;7.33;;;20.00;99.90;;;;;;5037817;28;20782;-65
2023/07/28 00:55:48;;;;;;;19.13;11.07;;;20.00;99.90;;;;;;5044283;28;21241;-67
2023/07/28 00:58:15;;;;;;;10.93;7.37;;;19.90;99.90;;;;;;5045718;28;20487;-63
2023/07/28 01:00:42;;;;;;;19.50;11.60;;;19.90;99.90;;;;;;5031160;28;20477;-65
2023/07/28 01:03:08;;;;;;;14.33;7.90;;;19.90;99.90;;;;;;5044917;28;20488;-63
2023/07/28 01:05:45;;;;;;;10.97;7.20;;;19.90;99.90;;;;;;5043503;28;20715;-64
2023/07/28 01:08:21;;;;;;;12.93;8.53;;;19.90;99.90;;;;;;5040728;28;20599;-64
2023/07/28 01:10:48;;;;;;;14.77;9.63;;;20.00;99.90;;;;;;5031140;28;20470;-63
2023/07/28 01:13:15;;;;;;;11.37;7.63;;;19.90;99.90;;;;;;5042596;28;20490;-63
2023/07/28 01:15:41;;;;;;;20.63;12.90;;;20.00;99.90;;;;;;5026213;28;20476;-62
2023/07/28 01:18:08;;;;;;;14.13;9.00;;;19.90;99.90;;;;;;5031109;28;20503;-63
2023/07/28 01:20:38;;;;;;;11.77;7.27;;;19.90;99.90;;;;;;5012934;28;20492;-63
2023/07/28 01:23:20;;;;;;;15.27;7.97;;;19.90;99.90;;;;;;5046813;28;20497;-63
2023/07/28 01:26:01;;;;;;;21.90;12.10;;;19.90;99.90;;;;;;5040271;28;20978;-62
2023/07/28 01:28:30;;;;;;;13.73;8.27;;;19.80;99.90;;;;;;5040178;28;20573;-62
2023/07/28 01:30:57;;;;;;;10.90;7.33;;;19.80;99.90;;;;;;5016781;28;20518;-62
2023/07/28 01:33:24;;;;;;;11.83;7.90;;;19.70;99.90;;;;;;5032423;28;20499;-62
2023/07/28 01:35:51;;;;;;;18.77;11.70;;;19.70;99.90;;;;;;5036394;28;20475;-63
2023/07/28 01:38:18;;;;;;;14.70;9.40;;;19.70;99.90;;;;;;5042502;28;20483;-63
2023/07/28 01:40:45;;;;;;;21.53;12.37;;;19.60;99.90;;;;;;5029015;28;20480;-63
2023/07/28 01:43:12;;;;;;;17.67;9.30;;;19.60;99.90;;;;;;5046235;28;20905;-63
2023/07/28 01:45:40;;;;;;;19.97;11.03;;;19.60;99.90;;;;;;5039434;28;20545;-62
2023/07/28 01:48:09;;;;;;;15.07;7.90;;;19.50;99.90;;;;;;5041673;28;21417;-63
2023/07/28 01:50:36;;;;;;;15.10;9.17;;;19.50;99.90;;;;;;5045442;28;20471;-63
2023/07/28 01:53:03;;;;;;;11.20;8.10;;;19.60;99.90;;;;;;5042991;28;20472;-63
2023/07/28 01:55:29;;;;;;;15.13;9.03;;;19.50;99.90;;;;;;5041181;28;21079;-63
2023/07/28 01:57:58;;;;;;;14.43;8.17;;;19.50;99.90;;;;;;5044906;28;20486;-64
2023/07/28 02:00:26;;;;;;;14.70;10.23;;;19.50;99.90;;;;;;5042240;28;20483;-64
2023/07/28 02:02:55;;;;;;;16.70;11.03;;;19.50;99.90;;;;;;5032573;28;20489;-64
2023/07/28 02:05:22;;;;;;;20.43;11.00;;;19.40;99.90;;;;;;5035724;28;20946;-65
2023/07/28 02:07:49;;;;;;;23.90;13.30;;;19.40;99.90;;;;;;5033603;28;20564;-65
2023/07/28 02:10:15;;;;;;;15.50;10.10;;;19.30;99.90;;;;;;5038354;28;20490;-65
2023/07/28 02:12:42;;;;;;;21.30;11.97;;;19.30;99.90;;;;;;5044665;28;20968;-65
2023/07/28 02:15:10;;;;;;;14.50;8.60;;;19.40;99.90;;;;;;5041039;28;20486;-65
2023/07/28 02:17:36;;;;;;;14.13;8.40;;;19.30;99.90;;;;;;5038258;28;21113;-67
2023/07/28 02:20:06;;;;;;;10.77;6.93;;;19.30;99.90;;;;;;5039549;28;20994;-66
2023/07/28 02:22:33;;;;;;;9.90;6.00;;;19.30;99.90;;;;;;5044008;28;20472;-67
2023/07/28 02:25:01;;;;;;;11.87;7.30;;;19.30;99.90;;;;;;5042300;28;20475;-66
2023/07/28 02:27:29;;;;;;;11.70;7.30;;;19.40;99.90;;;;;;5045035;28;20487;-66
2023/07/28 02:29:56;;;;;;;12.00;6.60;;;19.30;99.90;;;;;;5046683;28;21404;-67
2023/07/28 02:32:23;;;;;;;8.13;5.53;;;19.30;99.90;;;;;;5045866;28;20482;-67
2023/07/28 02:34:50;;;;;;;14.60;8.43;;;19.30;99.90;;;;;;5048969;28;20551;-68
2023/07/28 02:37:18;;;;;;;16.70;8.00;;;19.30;99.90;;;;;;5042345;28;20486;-65
2023/07/28 02:39:45;;;;;;;18.40;9.67;;;19.40;99.90;;;;;;5029989;28;20493;-67
2023/07/28 02:42:13;;;;;;;11.30;5.87;;;21.10;99.90;;;;;;5039848;28;20483;-65
2023/07/28 02:44:40;;;;;;;13.07;6.87;;;19.40;99.90;;;;;;5049167;28;20472;-65
2023/07/28 02:47:07;;;;;;;21.50;10.27;;;19.40;99.90;;;;;;5043188;28;20500;-67
2023/07/28 02:49:35;;;;;;;7.67;5.00;;;19.40;99.90;;;;;;5046168;28;20484;-65
2023/07/28 02:52:02;;;;;;;10.93;6.00;;;19.50;99.90;;;;;;5041922;28;20857;-65
2023/07/28 02:54:31;;;;;;;15.40;7.00;;;19.50;99.90;;;;;;5044222;28;21063;-67
2023/07/28 02:56:58;;;;;;;11.77;6.80;;;19.40;99.90;;;;;;5040585;28;20837;-66
2023/07/28 02:59:25;;;;;;;10.73;5.93;;;19.40;99.90;;;;;;5042439;28;20518;-66
2023/07/28 03:01:52;;;;;;;19.37;10.23;;;19.40;99.90;;;;;;5039415;28;20772;-69
2023/07/28 03:04:20;;;;;;;9.60;5.70;;;19.40;99.90;;;;;;5043954;28;20481;-66
2023/07/28 03:06:47;;;;;;;15.43;9.70;;;19.50;99.90;;;;;;5043237;28;20483;-69
2023/07/28 03:09:15;;;;;;;7.90;5.57;;;19.50;99.90;;;;;;5045547;28;20997;-67
2023/07/28 03:11:43;;;;;;;12.30;8.40;;;19.40;99.90;;;;;;5021638;28;20469;-66
2023/07/28 03:14:11;;;;;;;9.47;6.33;;;17.50;99.90;;;;;;5044901;28;20495;-66
2023/07/28 03:16:38;;;;;;;9.20;6.57;;;19.40;99.90;;;;;;5046941;28;20547;-65
2023/07/28 03:19:05;;;;;;;7.30;5.93;;;19.40;99.90;;;;;;5046108;28;20471;-69
2023/07/28 03:21:32;;;;;;;8.37;6.10;;;19.40;99.90;;;;;;5048695;28;20499;-67
2023/07/28 03:23:59;;;;;;;11.17;6.70;;;19.30;99.90;;;;;;5045838;28;20483;-68
2023/07/28 03:26:26;;;;;;;8.10;5.53;;;19.20;99.90;;;;;;5050317;28;20522;-68
2023/07/28 03:28:54;;;;;;;12.80;8.10;;;19.20;99.90;;;;;;5048266;28;20478;-68
2023/07/28 03:31:21;;;;;;;8.67;6.23;;;19.20;99.90;;;;;;5046946;28;21197;-67
2023/07/28 03:33:48;;;;;;;14.20;9.80;;;19.10;99.90;;;;;;5043074;28;20550;-70
2023/07/28 03:36:15;;;;;;;7.30;5.70;;;19.10;99.90;;;;;;5048461;28;20858;-69
2023/07/28 03:38:42;;;;;;;8.10;5.67;;;19.20;99.90;;;;;;5043780;28;20526;-68
2023/07/28 03:41:09;;;;;;;10.80;7.10;;;19.20;99.90;;;;;;5046482;28;20677;-67
2023/07/28 03:43:36;;;;;;;9.77;7.00;;;19.20;99.90;;;;;;5043196;28;20850;-68
2023/07/28 03:46:04;;;;;;;8.63;6.70;;;19.10;99.90;;;;;;5047988;28;20481;-70
2023/07/28 03:48:32;;;;;;;10.63;7.30;;;19.10;99.90;;;;;;5042533;28;20490;-64
2023/07/28 03:50:59;;;;;;;9.90;7.03;;;19.10;99.90;;;;;;5046718;28;20481;-67
2023/07/28 03:53:26;;;;;;;9.10;6.20;;;19.00;99.90;;;;;;5043970;28;21347;-65
2023/07/28 03:55:53;;;;;;;12.27;8.47;;;19.00;99.90;;;;;;5041851;28;20471;-68
2023/07/28 03:58:20;;;;;;;12.13;7.60;;;19.00;99.90;;;;;;5043662;28;20475;-69
2023/07/28 04:00:48;;;;;;;20.10;13.53;;;19.20;99.90;;;;;;5044598;28;20481;-66
2023/07/28 04:03:17;;;;;;;8.93;5.97;;;19.20;99.90;;;;;;5047921;28;20475;-67
2023/07/28 04:05:43;;;;;;;15.67;9.83;;;19.10;99.90;;;;;;5036352;28;20478;-66
2023/07/28 04:08:10;;;;;;;9.23;6.77;;;19.10;99.90;;;;;;5045710;28;20482;-67
2023/07/28 04:10:37;;;;;;;12.03;7.93;;;19.10;99.90;;;;;;5046452;28;20484;-65
2023/07/28 04:13:04;;;;;;;6.13;4.97;;;19.10;99.90;;;;;;5025457;28;20482;-68
2023/07/28 04:15:31;;;;;;;6.30;4.73;;;19.10;99.90;;;;;;5040941;28;21054;-63
2023/07/28 04:17:58;;;;;;;12.73;6.50;;;19.10;99.90;;;;;;5045637;28;20487;-67
2023/07/28 04:20:26;;;;;;;9.43;6.83;;;19.10;99.90;;;;;;5035154;28;20485;-63
2023/07/28 04:22:53;;;;;;;13.73;7.53;;;19.10;99.90;;;;;;5045781;28;20488;-66
2023/07/28 04:25:20;;;;;;;7.53;5.53;;;19.20;99.90;;;;;;5041456;28;20501;-66
2023/07/28 04:27:47;;;;;;;15.70;10.00;;;19.20;99.90;;;;;;5044237;28;20472;-66
2023/07/28 04:30:14;;;;;;;9.23;6.20;;;19.20;99.90;;;;;;5044310;28;20502;-64
2023/07/28 04:32:41;;;;;;;10.87;6.80;;;19.20;99.90;;;;;;5047727;28;20474;-64
2023/07/28 04:35:08;;;;;;;17.57;6.80;;;19.10;99.90;;;;;;5032068;28;20506;-61
2023/07/28 04:37:36;;;;;;;9.20;5.90;;;19.10;99.90;;;;;;5027161;28;20479;-65
2023/07/28 04:40:03;;;;;;;5.03;4.40;;;19.20;99.90;;;;;;5042711;28;20480;-65
2023/07/28 04:42:30;;;;;;;5.90;4.70;;;19.20;99.90;;;;;;5048465;28;20839;-67
2023/07/28 04:44:57;;;;;;;7.53;6.23;;;19.20;99.90;;;;;;5044900;28;20489;-65
2023/07/28 04:47:24;;;;;;;9.67;6.50;;;19.20;99.90;;;;;;5045162;28;20474;-66
2023/07/28 04:49:51;;;;;;;12.57;8.43;;;19.30;99.90;;;;;;5044225;28;20554;-66
2023/07/28 04:52:18;;;;;;;6.90;5.67;;;19.30;99.90;;;;;;5045590;28;20478;-62
2023/07/28 04:54:46;;;;;;;9.23;6.87;;;19.30;99.90;;;;;;5045972;28;20477;-64
2023/07/28 04:57:13;;;;;;;8.00;6.30;;;19.30;99.90;;;;;;5034899;28;20486;-62
2023/07/28 04:59:40;;;;;;;9.90;7.50;;;19.30;99.90;;;;;;5040617;28;21143;-66
2023/07/28 05:02:07;;;;;;;6.67;5.40;;;19.20;99.90;;;;;;5044285;28;20497;-61
2023/07/28 05:04:35;;;;;;;6.70;5.37;;;19.20;99.90;;;;;;5042512;28;20483;-63
2023/07/28 05:07:02;;;;;;;7.67;5.60;;;19.30;99.90;;;;;;5044910;28;20533;-64
2023/07/28 05:09:29;;;;;;;10.93;6.80;;;19.30;99.90;;;;;;5047129;28;20478;-66
2023/07/28 05:11:57;;;;;;;10.60;6.80;;;19.20;99.90;;;;;;5045401;28;20482;-66
2023/07/28 05:14:24;;;;;;;5.40;4.60;;;19.30;99.90;;;;;;5018941;28;20557;-68
2023/07/28 05:16:51;;;;;;;15.03;10.80;;;19.30;99.90;;;;;;5048018;28;21004;-64
2023/07/28 05:19:18;;;;;;;9.10;6.30;;;19.30;99.90;;;;;;5045888;28;20476;-63
2023/07/28 05:21:45;;;;;;;11.07;7.97;;;19.30;99.90;;;;;;5041305;28;20498;-67
2023/07/28 05:24:12;;;;;;;21.43;14.10;;;19.30;99.90;;;;;;5044396;28;20490;-65
2023/07/28 05:26:38;;;;;;;11.03;8.07;;;19.30;99.90;;;;;;5045391;28;20584;-67
2023/07/28 05:29:07;;;;;;;8.30;5.70;;;19.30;99.90;;;;;;5049347;28;20472;-63
2023/07/28 05:31:33;;;;;;;9.07;6.50;;;19.40;99.90;;;;;;5046017;28;20453;-66
2023/07/28 05:34:00;;;;;;;7.77;6.63;;;19.50;99.90;;;;;;5047556;28;20800;-64
2023/07/28 05:36:28;;;;;;;7.90;6.20;;;19.50;99.90;;;;;;5046596;28;20471;-64
2023/07/28 05:38:56;;;;;;;11.57;7.30;;;19.50;99.90;;;;;;5043771;28;21003;-63
2023/07/28 05:41:23;;;;;;;7.00;5.27;;;19.60;99.90;;;;;;5032275;28;20482;-66
2023/07/28 05:43:51;;;;;;;13.93;8.97;;;19.60;99.90;;;;;;5042324;28;20481;-65
2023/07/28 05:46:20;;;;;;;7.83;5.27;;;19.50;99.90;;;;;;5043030;28;20508;-66
2023/07/28 05:48:47;;;;;;;11.03;8.90;;;19.60;99.90;;;;;;5042991;28;20472;-66
2023/07/28 05:51:13;;;;;;;6.00;4.20;;;19.50;99.90;;;;;;5043652;28;20566;-63
2023/07/28 05:53:40;;;;;;;11.07;6.87;;;19.60;99.90;;;;;;5042256;28;20478;-67
2023/07/28 05:56:07;;;;;;;7.10;5.50;;;19.60;99.90;;;;;;5043739;28;20479;-65
2023/07/28 05:58:34;;;;;;;7.60;5.70;;;19.50;99.90;;;;;;5043435;28;20565;-64
2023/07/28 06:01:01;;;;;;;9.30;5.47;;;19.50;99.90;;;;;;5043401;28;20483;-65
2023/07/28 06:03:30;;;;;;;10.30;6.93;;;19.50;99.90;;;;;;5046799;28;20491;-62
2023/07/28 06:05:57;;;;;;;6.70;6.00;;;19.50;99.90;;;;;;5045829;28;20494;-67
2023/07/28 06:08:24;;;;;;;6.50;5.63;;;19.50;99.90;;;;;;5041706;28;21003;-64
2023/07/28 06:10:51;;;;;;;12.60;9.30;;;19.50;99.90;;;;;;5045145;28;20470;-62
2023/07/28 06:13:18;;;;;;;7.90;5.97;;;19.50;99.90;;;;;;5042649;28;20488;-64
2023/07/28 06:15:45;;;;;;;16.20;10.10;;;19.60;99.90;;;;;;5040049;28;20514;-63
2023/07/28 06:18:12;;;;;;;9.10;6.43;;;19.60;99.90;;;;;;5035375;28;20516;-65
2023/07/28 06:20:42;;;;;;;10.40;7.40;;;19.60;99.90;;;;;;5043262;28;20475;-64
2023/07/28 06:23:09;;;;;;;6.80;6.00;;;19.70;99.90;;;;;;5042476;28;20492;-62
2023/07/28 06:25:37;;;;;;;6.07;5.43;;;19.60;99.90;;;;;;5044696;28;20506;-64
2023/07/28 06:28:05;;;;;;;7.37;6.17;;;19.70;99.90;;;;;;5042322;28;20475;-66
2023/07/28 06:30:32;;;;;;;11.23;5.77;;;19.60;99.90;;;;;;5043269;28;20486;-64
2023/07/28 06:32:59;;;;;;;5.40;4.90;;;19.60;99.90;;;;;;5046091;28;20484;-68
2023/07/28 06:35:27;;;;;;;12.60;4.90;;;19.60;99.90;;;;;;5044418;28;20735;-65
2023/07/28 06:37:55;;;;;;;11.20;8.23;;;19.70;99.90;;;;;;5042186;28;20479;-65
2023/07/28 06:40:22;;;;;;;10.70;5.90;;;19.70;99.90;;;;;;5042831;28;20486;-65
2023/07/28 06:42:49;;;;;;;11.53;9.23;;;19.70;99.90;;;;;;5041015;28;20479;-65
2023/07/28 06:45:16;;;;;;;7.07;5.60;;;19.70;99.90;;;;;;5042980;28;20482;-65
2023/07/28 06:47:43;;;;;;;14.27;9.47;;;19.80;99.90;;;;;;5038431;28;20470;-65
2023/07/28 06:50:11;;;;;;;7.37;5.63;;;19.80;99.90;;;;;;5043960;28;20483;-67
2023/07/28 06:52:38;;;;;;;10.40;6.43;;;19.90;99.90;;;;;;5010379;28;20492;-65
2023/07/28 06:55:07;;;;;;;9.00;5.90;;;19.90;99.90;;;;;;5042329;28;20474;-67
2023/07/28 06:57:34;;;;;;;7.87;7.07;;;19.90;99.90;;;;;;5041948;28;20519;-65
2023/07/28 07:00:03;;;;;;;7.40;5.40;;;20.00;99.90;;;;;;5041723;28;20804;-65
2023/07/28 07:02:30;;;;;;;9.50;5.57;;;19.90;99.90;;;;;;5046923;28;20631;-65
2023/07/28 07:04:57;;;;;;;8.93;5.93;;;20.00;99.90;;;;;;5044532;28;20475;-64
2023/07/28 07:07:25;;;;;;;10.30;7.30;;;20.00;99.90;;;;;;5046323;28;20482;-63
2023/07/28 07:09:52;;;;;;;13.90;9.30;;;20.00;99.90;;;;;;5022768;28;21073;-64
2023/07/28 07:12:21;;;;;;;8.13;6.17;;;20.00;99.90;;;;;;5023283;28;20477;-66
2023/07/28 07:14:48;;;;;;;11.07;8.70;;;20.00;99.90;;;;;;5040101;28;20482;-65
2023/07/28 07:17:15;;;;;;;12.47;9.23;;;20.10;99.90;;;;;;5042306;28;20472;-66
2023/07/28 07:19:42;;;;;;;15.03;10.27;;;19.90;99.90;;;;;;5030469;28;21153;-65
2023/07/28 07:22:08;;;;;;;7.47;6.37;;;20.10;99.90;;;;;;5042454;28;20998;-66
2023/07/28 07:24:35;;;;;;;8.17;6.10;;;20.20;99.90;;;;;;5042446;28;20812;-65
2023/07/28 07:27:02;;;;;;;9.13;7.60;;;20.30;99.90;;;;;;5045787;28;20779;-65
2023/07/28 07:29:31;;;;;;;8.07;6.33;;;20.30;99.90;;;;;;5045554;28;20479;-65
2023/07/28 07:31:58;;;;;;;10.10;6.67;;;20.40;99.90;;;;;;5041638;28;20521;-64
2023/07/28 07:34:24;;;;;;;7.73;6.17;;;20.40;99.90;;;;;;5041666;28;20848;-65
2023/07/28 07:36:51;;;;;;;10.20;9.10;;;20.50;99.90;;;;;;5043366;28;20561;-64
2023/07/28 07:39:18;;;;;;;8.13;7.23;;;20.50;99.90;;;;;;5042358;28;20483;-65
2023/07/28 07:41:45;;;;;;;9.53;8.57;;;20.60;99.90;;;;;;5041267;28;20467;-65
2023/07/28 07:44:12;;;;;;;10.17;9.07;;;20.70;99.90;;;;;;5038667;28;20478;-66
2023/07/28 07:46:40;;;;;;;9.43;8.43;;;20.60;99.90;;;;;;5030186;28;20856;-65
2023/07/28 07:49:07;;;;;;;10.60;8.70;;;20.70;99.90;;;;;;5044032;28;20837;-64
2023/07/28 07:51:34;;;;;;;8.97;8.00;;;20.70;99.90;;;;;;5042393;28;20484;-64
2023/07/28 07:54:02;;;;;;;12.13;10.10;;;20.70;99.90;;;;;;5043799;28;20485;-66
2023/07/28 07:56:29;;;;;;;11.87;9.30;;;20.50;99.90;;;;;;5045682;28;20486;-65
2023/07/28 07:58:56;;;;;;;11.27;10.17;;;20.60;99.90;;;;;;5046952;28;20485;-62
2023/07/28 08:01:23;;;;;;;11.40;8.87;;;20.70;99.90;;;;;;5048320;28;20909;-65
2023/07/28 08:03:51;;;;;;;14.87;11.43;;;20.80;99.90;;;;;;5046873;28;20558;-64
2023/07/28 08:06:18;;;;;;;10.03;9.03;;;20.90;99.90;;;;;;5046238;28;20481;-67
2023/07/28 08:08:45;;;;;;;11.20;10.03;;;21.10;99.90;;;;;;5044840;28;20469;-63
2023/07/28 08:11:13;;;;;;;9.13;8.07;;;21.20;99.90;;;;;;5044585;28;20486;-64
2023/07/28 08:13:39;;;;;;;13.20;11.27;;;21.20;99.90;;;;;;5044917;28;20895;-63
2023/07/28 08:16:06;;;;;;;11.83;8.60;;;21.30;99.90;;;;;;5047736;28;20786;-66
2023/07/28 08:18:34;;;;;;;9.57;8.20;;;21.30;99.90;;;;;;5047730;28;20572;-66
2023/07/28 08:21:03;;;;;;;9.77;8.77;;;21.30;99.90;;;;;;5045597;28;20619;-67
2023/07/28 08:23:29;;;;;;;8.90;7.63;;;21.30;99.90;;;;;;5046479;28;20861;-64
2023/07/28 08:25:56;;;;;;;10.43;7.80;;;21.40;99.90;;;;;;5031127;28;20997;-63
2023/07/28 08:28:23;;;;;;;7.93;7.20;;;21.40;99.90;;;;;;5042500;28;20770;-63
2023/07/28 08:30:56;;;;;;;15.03;10.73;;;21.40;99.90;;;;;;5044870;28;20730;-65
2023/07/28 08:33:23;;;;;;;8.50;7.30;;;21.30;99.90;;;;;;5037050;28;20470;-63
2023/07/28 08:35:50;;;;;;;10.20;8.43;;;21.50;99.90;;;;;;5047905;28;20468;-64
2023/07/28 08:38:18;;;;;;;8.43;6.67;;;21.40;99.90;;;;;;5045332;28;20484;-64
2023/07/28 08:40:45;;;;;;;13.17;11.80;;;21.40;99.90;;;;;;5045422;28;20480;-67
2023/07/28 08:43:12;;;;;;;9.93;7.27;;;21.40;99.90;;;;;;5044177;28;20481;-67
2023/07/28 08:45:39;;;;;;;10.50;8.87;;;21.40;99.90;;;;;;5045162;28;20505;-63
2023/07/28 08:48:06;;;;;;;8.70;7.80;;;21.40;99.90;;;;;;5042977;28;20825;-64
2023/07/28 08:50:34;;;;;;;8.17;7.37;;;21.50;99.90;;;;;;5044443;28;20827;-63
2023/07/28 08:53:00;;;;;;;7.67;6.97;;;21.70;99.90;;;;;;5044135;28;20483;-63
2023/07/28 08:55:29;;;;;;;9.17;5.60;;;21.50;99.90;;;;;;5044925;28;21017;-65
2023/07/28 08:57:56;;;;;;;7.10;6.33;;;21.50;99.90;;;;;;5043039;28;20505;-65
2023/07/28 09:00:25;;;;;;;19.13;8.50;;;21.40;99.90;;;;;;5046413;28;20488;-66
2023/07/28 09:02:52;;;;;;;9.43;8.33;;;21.40;99.90;;;;;;5021778;28;20471;-67
2023/07/28 09:05:20;;;;;;;18.60;7.33;;;21.50;99.90;;;;;;5037382;28;20482;-65
2023/07/28 09:07:47;;;;;;;9.50;8.60;;;21.50;99.90;;;;;;5044741;28;20508;-64
2023/07/28 09:10:14;;;;;;;8.13;7.33;;;21.60;99.90;;;;;;5047726;28;20677;-64
2023/07/28 09:12:48;;;;;;;8.43;7.67;;;21.70;99.90;;;;;;5047274;28;20453;-66
2023/07/28 09:15:16;;;;;;;11.07;7.30;;;21.50;99.90;;;;;;5049599;28;21058;-65
2023/07/28 09:17:44;;;;;;;10.43;9.33;;;21.40;99.90;;;;;;5040717;28;20806;-65
2023/07/28 09:20:15;;;;;;;9.83;8.23;;;21.40;99.90;;;;;;5043633;28;20478;-62
2023/07/28 09:22:42;;;;;;;12.77;9.63;;;21.20;99.90;;;;;;5042546;28;20490;-66
2023/07/28 09:25:17;;;;;;;8.90;8.00;;;22.40;99.90;;;;;;5046477;28;21088;-65
2023/07/28 09:27:52;;;;;;;11.57;10.37;;;21.10;99.90;;;;;;5042541;28;21014;-64
2023/07/28 09:30:20;;;;;;;7.67;6.97;;;21.10;99.90;;;;;;5047445;28;21281;-66
2023/07/28 09:32:49;;;;;;;8.90;8.00;;;21.30;99.90;;;;;;5044954;28;20485;-66
2023/07/28 09:35:17;;;;;;;9.93;8.07;;;21.30;99.90;;;;;;5033357;28;20482;-66
2023/07/28 09:37:45;;;;;;;10.87;9.77;;;21.30;99.90;;;;;;5042455;28;20980;-66
2023/07/28 09:40:14;;;;;;;9.70;8.80;;;21.40;99.90;;;;;;5044198;28;20478;-65
2023/07/28 09:42:42;;;;;;;10.30;9.23;;;21.40;99.90;;;;;;5044145;28;20482;-66
2023/07/28 09:45:11;;;;;;;10.40;8.67;;;21.60;99.90;;;;;;5043841;28;20484;-66
2023/07/28 09:47:39;;;;;;;8.20;7.23;;;21.70;99.90;;;;;;5042687;28;20482;-64
2023/07/28 09:50:09;;;;;;;8.53;7.70;;;21.70;99.90;;;;;;5044559;28;21037;-65
2023/07/28 09:52:39;;;;;;;8.27;7.33;;;21.70;99.90;;;;;;5040264;28;20533;-64
2023/07/28 09:55:08;;;;;;;9.63;8.63;;;21.70;99.90;;;;;;5049387;28;20478;-65
2023/07/28 09:57:39;;;;;;;7.60;6.87;;;21.70;99.90;;;;;;5048500;28;20455;-65
2023/07/28 10:00:11;;;;;;;8.47;7.60;;;21.60;99.90;;;;;;5043369;28;20564;-64
2023/07/28 10:02:39;;;;;;;6.90;6.30;;;21.60;99.90;;;;;;5040797;28;20600;-66
2023/07/28 10:05:07;;;;;;;7.67;6.87;;;21.50;99.90;;;;;;5042200;28;20485;-66
2023/07/28 10:07:37;;;;;;;7.40;6.63;;;21.40;99.90;;;;;;5043769;28;20490;-65
2023/07/28 10:10:07;;;;;;;7.80;6.70;;;23.00;99.90;;;;;;5042411;28;20479;-62
2023/07/28 10:12:42;;;;;;;6.23;5.63;;;21.40;99.90;;;;;;5044449;28;21418;-64
2023/07/28 10:15:15;;;;;;;8.47;7.47;;;21.30;99.90;;;;;;5044415;28;20471;-64
2023/07/28 10:17:47;;;;;;;14.17;7.87;;;21.30;99.90;;;;;;5044301;28;20485;-65
2023/07/28 10:20:35;;;;;;;9.30;8.40;;;21.20;99.90;;;;;;5040391;28;20635;-68
2023/07/28 10:23:07;;;;;;;8.97;7.50;;;21.00;99.90;;;;;;5035001;28;20548;-64
2023/07/28 10:25:35;;;;;;;9.33;8.43;;;21.10;99.90;;;;;;5042803;28;20571;-64
2023/07/28 10:28:03;;;;;;;13.20;8.40;;;21.10;99.90;;;;;;5041788;28;20910;-64
2023/07/28 10:30:39;;;;;;;8.50;7.70;;;21.10;99.90;;;;;;5043339;28;20553;-63
2023/07/28 10:33:06;;;;;;;7.80;7.10;;;21.10;99.90;;;;;;5042364;28;20451;-68
2023/07/28 10:35:34;;;;;;;9.57;7.97;;;21.40;99.90;;;;;;5041730;28;20487;-65
2023/07/28 10:38:36;;;;;;;8.10;6.87;;;21.40;99.90;;;;;;5043504;28;20731;-66
2023/07/28 10:41:08;;;;;;;8.07;7.27;;;21.40;99.90;;;;;;5032054;28;20464;-67
2023/07/28 10:43:35;;;;;;;8.50;6.17;;;21.50;99.90;;;;;;5042317;28;20481;-66
2023/07/28 10:46:04;;;;;;;6.33;5.60;;;21.50;99.90;;;;;;5042808;28;20644;-65
2023/07/28 10:48:31;;;;;;;7.67;6.50;;;21.40;99.90;;;;;;5043208;28;20472;-67
2023/07/28 10:50:58;;;;;;;8.13;7.27;;;21.40;99.90;;;;;;5043607;28;20477;-67
2023/07/28 10:53:25;;;;;;;9.00;7.63;;;21.50;99.90;;;;;;5042747;28;20484;-65
2023/07/28 10:55:53;;;;;;;11.30;9.40;;;21.40;99.90;;;;;;5041822;28;21036;-66
2023/07/28 10:58:20;;;;;;;8.77;7.50;;;21.40;99.90;;;;;;5043387;28;20473;-67
2023/07/28 11:00:47;;;;;;;12.43;10.50;;;21.40;99.90;;;;;;5041996;28;20460;-65
2023/07/28 11:03:16;;;;;;;9.80;8.27;;;21.40;99.90;;;;;;5044027;28;20491;-65
2023/07/28 11:05:42;;;;;;;13.77;11.53;;;21.50;99.90;;;;;;5044883;28;20478;-66
2023/07/28 11:08:09;;;;;;;8.53;7.53;;;21.60;99.90;;;;;;5041432;28;20483;-65
2023/07/28 11:10:36;;;;;;;15.30;8.93;;;21.60;99.90;;;;;;5040603;28;20814;-69
2023/07/28 11:13:04;;;;;;;12.73;8.93;;;21.70;99.90;;;;;;5043617;28;20960;-64
2023/07/28 11:15:31;;;;;;;9.67;8.47;;;22.00;99.90;;;;;;5042810;28;20473;-65
2023/07/28 11:17:58;;;;;;;9.67;8.67;;;21.70;99.90;;;;;;5040036;28;20476;-66
2023/07/28 11:20:28;;;;;;;11.53;8.13;;;21.60;99.90;;;;;;5044619;28;20506;-70
2023/07/28 11:22:57;;;;;;;11.43;10.27;;;21.60;99.90;;;;;;5043913;28;20502;-65
2023/07/28 11:25:24;;;;;;;12.07;10.80;;;21.50;99.90;;;;;;5041703;28;20967;-67
2023/07/28 11:27:52;;;;;;;15.07;13.43;;;21.40;99.90;;;;;;5041305;28;20498;-65
2023/07/28 11:30:20;;;;;;;13.23;9.70;;;21.20;99.90;;;;;;5045604;28;20479;-66
2023/07/28 11:32:48;;;;;;;14.30;11.80;;;21.10;99.90;;;;;;5046025;28;20936;-67
2023/07/28 11:35:17;;;;;;;10.43;9.10;;;23.10;99.90;;;;;;5043012;28;20457;-66
2023/07/28 11:37:47;;;;;;;15.70;12.73;;;20.90;99.90;;;;;;5031148;28;20682;-66
2023/07/28 11:40:18;;;;;;;10.80;8.23;;;20.70;99.90;;;;;;5045511;28;20474;-63
2023/07/28 11:42:46;;;;;;;13.37;11.20;;;20.70;99.90;;;;;;5043241;28;20481;-64
2023/07/28 11:45:15;;;;;;;9.20;7.70;;;20.70;99.90;;;;;;5035743;28;20481;-65
2023/07/28 11:47:55;;;;;;;15.50;11.10;;;20.70;99.90;;;;;;5043922;28;20503;-67
2023/07/28 11:50:26;;;;;;;10.23;8.43;;;20.60;99.90;;;;;;5045382;28;20824;-65
2023/07/28 11:52:56;;;;;;;14.73;10.03;;;20.60;99.90;;;;;;5044858;28;20463;-66
2023/07/28 11:55:23;;;;;;;40.93;9.70;;;20.50;99.90;;;;;;5044970;28;20570;-67
2023/07/28 11:57:51;;;;;;;11.93;10.13;;;21.80;99.90;;;;;;5030919;28;21045;-68
2023/07/28 12:00:21;;;;;;;30.93;7.80;;;20.40;99.90;;;;;;5035214;28;20979;-66
2023/07/28 12:02:47;;;;;;;28.27;9.07;;;20.40;99.90;;;;;;5045078;28;21053;-67
2023/07/28 12:05:15;;;;;;;8.73;6.37;;;20.40;99.90;;;;;;5044779;28;20477;-68
2023/07/28 12:07:47;;;;;;;12.13;9.30;;;20.50;99.90;;;;;;5042540;28;20481;-67
2023/07/28 12:10:17;;;;;;;6.30;5.57;;;20.40;99.90;;;;;;5044755;28;20578;-67
2023/07/28 12:12:46;;;;;;;10.37;8.00;;;20.40;99.90;;;;;;5045328;28;20478;-68
2023/07/28 12:15:27;;;;;;;8.57;5.97;;;20.40;99.90;;;;;;5044520;28;20484;-66
2023/07/28 12:18:05;;;;;;;11.33;6.27;;;20.30;99.90;;;;;;5043486;28;21164;-66
2023/07/28 12:20:35;;;;;;;6.10;5.10;;;20.30;99.90;;;;;;5046231;28;20483;-68
2023/07/28 12:23:01;;;;;;;5.10;4.53;;;20.20;99.90;;;;;;5045215;28;20605;-65
2023/07/28 12:25:30;;;;;;;7.70;5.70;;;20.30;99.90;;;;;;5044020;28;20821;-67
2023/07/28 12:27:57;;;;;;;6.90;6.13;;;20.20;99.90;;;;;;5043388;28;21029;-67
2023/07/28 12:30:24;;;;;;;7.00;6.10;;;20.20;99.90;;;;;;5046062;28;20892;-67
2023/07/28 12:32:51;;;;;;;9.87;7.80;;;20.30;99.90;;;;;;5044165;28;20474;-68
2023/07/28 12:35:18;;;;;;;10.20;6.03;;;20.30;99.90;;;;;;5043162;28;20825;-68
2023/07/28 12:37:45;;;;;;;17.33;9.80;;;20.40;99.90;;;;;;5030562;28;20557;-67
2023/07/28 12:40:12;;;;;;;7.33;5.67;;;20.30;99.90;;;;;;5038340;28;20493;-67
2023/07/28 12:42:41;;;;;;;10.03;7.47;;;20.30;99.90;;;;;;5013713;28;20467;-68
2023/07/28 12:45:10;;;;;;;7.37;6.57;;;20.40;99.90;;;;;;5045923;28;20475;-67